• Join FlightAware (Why Join?)
  • Login
  • US Flag 
05:47AM EDT


 

Airport Tracker/Info


-or-


 

Live Flight TrackerFlight Track Log ✈ BJS618 ✈ 07-Nov-2013 ✈ KFOK - KCHS

Flight Track Log - Related Links

Times and Time Zones

All times are in EST time to prevent confusion due to time zone crossing. See the BJS618 flight status page for this flight to view local times or setup timezone preferences in your user account.

Time Position Orientation Groundspeed Altitude Reporting Facility
EST Latitude Longitude Course Direction KTS MPH feet Rate Location/Type
12:51PM 40.7758 -72.5856 138° Southeast 233 268 4,200  Level Boston Center
12:52PM 40.7133 -72.5669 167° South 249 287 7,200 3,120 Climbing Boston Center
12:53PM 40.6578 -72.6256 219° Southwest 255 293 10,500 2,940 Climbing Boston Center
12:54PM 40.6064 -72.6878 223° Southwest 252 290 13,200 2,400 Climbing Boston Center
12:55PM 40.5497 -72.7511 220° Southwest 261 300 15,500 2,220 Climbing Boston Center
12:56PM 40.4908 -72.8169 220° Southwest 274 315 17,800 2,280 Climbing Boston Center
12:57PM 40.4272 -72.8886 221° Southwest 289 333 20,100 2,040 Climbing Boston Center
12:58PM 40.3625 -72.9611 220° Southwest 302 348 22,100 2,100 Climbing Boston Center
12:59PM 40.2894 -73.0644 227° Southwest 320 368 24,500 2,280 Climbing Boston Center
01:00PM 40.2272 -73.1517 227° Southwest 327 376 26,800 2,220 Climbing Boston Center
01:01PM 40.1667 -73.2383 228° Southwest 328 377 29,000 2,160 Climbing Boston Center
01:02PM 40.1050 -73.3269 228° Southwest 328 377 31,200 2,040 Climbing Boston Center
01:02PM 40.0681 -73.3767 226° Southwest 330 380 32,200 1,680 Climbing Washington Center
01:03PM 40.0131 -73.4542 227° Southwest 330 380 33,700 1,560 Climbing Washington Center
01:04PM 39.9500 -73.5400 226° Southwest 330 380 35,300 1,620 Climbing Washington Center
01:05PM 39.8911 -73.6283 229° Southwest 330 380 37,000 1,620 Climbing Washington Center
01:06PM 39.8586 -73.6700 225° Southwest 314 361 37,900 1,200 Climbing Boston Center
01:07PM 39.7903 -73.7419 219° Southwest 315 362 39,000 1,020 Climbing Boston Center
01:08PM 39.7219 -73.8144 219° Southwest 317 365 40,000 1,020 Climbing Boston Center
01:09PM 39.6375 -73.8989 218° Southwest 317 365 41,100 840 Climbing Boston Center
01:10PM 39.5672 -73.9706 218° Southwest 318 366 41,800 660 Climbing Boston Center
01:11PM 39.4961 -74.0436 218° Southwest 323 372 42,500 540 Climbing Boston Center
01:12PM 39.4244 -74.1158 218° Southwest 324 373 43,000 240 Climbing Boston Center
01:13PM 39.3494 -74.1919 218° Southwest 337 388 43,000  Level Boston Center
01:14PM 39.2711 -74.2700 218° Southwest 349 402 43,000  Level Boston Center
01:15PM 39.1903 -74.3497 217° Southwest 360 414 43,000  Level Boston Center
01:16PM 39.0892 -74.4497 218° Southwest 368 423 43,000  Level Washington Center
01:17PM 39.0086 -74.5339 219° Southwest 368 423 43,000  Level Washington Center
01:18PM 38.9322 -74.6097 218° Southwest 368 423 43,000  Level Washington Center
01:19PM 38.8514 -74.6906 218° Southwest 368 423 43,000  Level Washington Center
01:20PM 38.7728 -74.7689 218° Southwest 368 423 43,000  Level Washington Center
01:21PM 38.6942 -74.8442 217° Southwest 368 423 43,000  Level Washington Center
01:22PM 38.6153 -74.9222 218° Southwest 363 418 43,000  Level Washington Center
01:23PM 38.5364 -74.9997 218° Southwest 363 418 43,000  Level Washington Center
01:24PM 38.4578 -75.0772 218° Southwest 363 418 43,000  Level Washington Center
01:25PM 38.3808 -75.1519 217° Southwest 363 418 43,000  Level Washington Center
01:26PM 38.2997 -75.2425 221° Southwest 363 418 43,000  Level Washington Center
01:27PM 38.2167 -75.3142 214° Southwest 363 418 43,000  Level Washington Center
01:28PM 38.1353 -75.3939 218° Southwest 368 423 43,000  Level Washington Center
01:29PM 38.0542 -75.4706 217° Southwest 368 423 43,000  Level Washington Center
01:30PM 37.9644 -75.5417 212° Southwest 373 429 43,000  Level Washington Center
01:31PM 37.8750 -75.6075 210° Southwest 378 435 43,000  Level Washington Center
01:32PM 37.7831 -75.6758 210° Southwest 378 435 43,000  Level Washington Center
01:33PM 37.6914 -75.7439 210° Southwest 378 435 43,000  Level Washington Center
01:34PM 37.6036 -75.8119 212° Southwest 378 435 43,000  Level Washington Center
01:35PM 37.5139 -75.8747 209° Southwest 384 442 43,000  Level Washington Center
01:36PM 37.4136 -75.9264 202° Southwest 384 442 43,000  Level Washington Center
01:37PM 37.3175 -75.9783 203° Southwest 379 436 43,000  Level Washington Center
01:38PM 37.2192 -76.0325 204° Southwest 379 436 43,000  Level Washington Center
01:39PM 37.1208 -76.0842 203° Southwest 379 436 43,000  Level Washington Center
01:40PM 37.0247 -76.1383 204° Southwest 379 436 43,000  Level Washington Center
01:41PM 36.9308 -76.1792 199° South 384 442 43,000  Level Washington Center
01:42PM 36.8406 -76.2433 210° Southwest 384 442 43,000  Level Washington Center
01:43PM 36.7567 -76.3231 217° Southwest 379 436 43,000  Level Washington Center
01:44PM 36.6664 -76.4103 218° Southwest 379 436 43,000  Level Washington Center
01:45PM 36.5847 -76.4844 216° Southwest 379 436 43,000  Level Washington Center
01:46PM 36.4983 -76.5608 215° Southwest 379 436 43,000  Level Washington Center
01:47PM 36.4208 -76.6269 214° Southwest 384 442 43,000  Level Washington Center
01:48PM 36.3386 -76.7033 217° Southwest 384 442 43,000  Level Washington Center
01:49PM 36.2525 -76.7767 214° Southwest 384 442 43,000  Level Washington Center
01:50PM 36.1683 -76.8528 216° Southwest 384 442 43,000  Level Washington Center
01:51PM 36.0819 -76.9286 215° Southwest 384 442 43,000  Level Washington Center
01:52PM 35.9997 -77.0042 217° Southwest 384 442 43,000  Level Washington Center
01:53PM 35.9111 -77.0794 215° Southwest 384 442 43,000  Level Washington Center
01:54PM 35.8244 -77.1622 218° Southwest 378 435 43,000  Level Washington Center
01:55PM 35.7464 -77.2325 216° Southwest 378 435 43,000  Level Washington Center
01:56PM 35.6661 -77.2972 213° Southwest 385 443 43,000  Level Washington Center
01:57PM 35.5547 -77.3486 201° Southwest 385 443 43,000  Level Washington Center
01:58PM 35.4478 -77.3894 197° South 397 457 43,000  Level Washington Center
01:59PM 35.3408 -77.4306 197° South 403 464 43,000 -240 Level Washington Center
02:00PM 35.2358 -77.4714 198° South 403 464 42,600 -900 Descending Washington Center
02:01PM 35.1328 -77.5147 199° South 403 464 41,300 -1,380 Descending Washington Center
02:02PM 35.0319 -77.5553 198° South 397 457 39,800 -1,620 Descending Washington Center
02:03PM 34.9250 -77.5983 198° South 397 457 38,100 -1,920 Descending Washington Center
02:04PM 34.8156 -77.6411 198° South 408 470 36,100 -1,920 Descending Washington Center
02:05PM 34.7044 -77.6864 199° South 414 476 34,300 -1,080 Descending Washington Center
02:06PM 34.5992 -77.7342 200° South 414 476 34,000 -180 Descending Washington Center
02:07PM 34.5142 -77.8200 220° Southwest 396 456 34,000 -120 Level Washington Center
02:08PM 34.4247 -77.9108 220° Southwest 411 473 33,800 -780 Descending Washington Center
02:09PM 34.3417 -78.0042 223° Southwest 416 479 32,500 -1,320 Descending Washington Center
02:10PM 34.2744 -78.1203 235° Southwest 416 479 31,200 -1,380 Descending Washington Center
02:12PM 34.1647 -78.3853 243° Southwest 410 472 28,400 -1,500 Descending Jacksonville Center
02:13PM 34.1144 -78.4933 241° Southwest 398 458 26,700 -1,860 Descending Jacksonville Center
02:14PM 34.0489 -78.5894 231° Southwest 386 444 24,700 -2,040 Descending Jacksonville Center
02:15PM 33.9700 -78.6633 218° Southwest 365 420 22,700 -2,040 Descending Jacksonville Center
02:16PM 33.8975 -78.7394 221° Southwest 365 420 20,700 -2,040 Descending Jacksonville Center
02:17PM 33.8419 -78.8294 233° Southwest 350 403 18,700 -1,440 Descending Jacksonville Center
02:18PM 33.7861 -78.9144 232° Southwest 337 388 17,900 -360 Descending Jacksonville Center
02:19PM 33.7244 -79.0072 231° Southwest 342 394 18,000 -360 Climbing Jacksonville Center
02:20PM 33.6564 -79.1050 230° Southwest 360 414 17,200 -1,020 Descending Jacksonville Center
02:21PM 33.6086 -79.1819 233° Southwest 355 409 16,000 -1,260 Descending Jacksonville Center
02:22PM 33.5467 -79.2742 231° Southwest 355 409 14,700 -1,260 Descending Jacksonville Center
02:23PM 33.4806 -79.3689 230° Southwest 360 414 13,500 -1,200 Descending Jacksonville Center
02:24PM 33.4203 -79.4608 232° Southwest 360 414 12,300 -1,200 Descending Jacksonville Center
02:25PM 33.3622 -79.5503 232° Southwest 355 409 11,200 -960 Descending Jacksonville Center
02:26PM 33.2847 -79.6178 216° Southwest 348 400 10,400 -960 Descending Jacksonville Center
02:27PM 33.2086 -79.6653 208° Southwest 333 383 9,300 -1,200 Descending Jacksonville Center
02:28PM 33.1431 -79.7047 207° Southwest 300 345 8,100 -1,320 Descending Jacksonville Center
02:29PM 33.0731 -79.7444 205° Southwest 283 326 6,700 -1,500 Descending Jacksonville Center
02:30PM 33.0053 -79.7864 207° Southwest 278 320 5,100 -1,620 Descending Jacksonville Center
02:31PM 32.9481 -79.8356 216° Southwest 273 314 3,500 -1,620 Descending Jacksonville Center
02:32PM 32.8928 -79.8869 218° Southwest 268 308 2,000 -840 Descending Jacksonville Center
02:33PM 32.8461 -79.9403 224° Southwest 252 290 1,900 -120 Descending Jacksonville Center
02:35PM 32.7865 -80.0066 344° North  Level FlightAware Approximate
02:42PM 32.8833 -80.0333 348° North  Level FlightAware Approximate
02:43PM 32.8986 -80.0405 348° North  Level Estimated
02:44PM 32.8986 -80.0405 348° North  Level Estimated